Time;durP1;ratioP1;P1;durP2;ratioP2;P2;SDS_P1;SDS_P2;PMS_P1;PMS_P2;Temp;Humidity;BMP_temperature;BMP_pressure;BME280_temperature;BME280_humidity;BME280_pressure;Samples;Min_cycle;Max_cycle;Signal;HPM_P1;HPM_P2
2023/09/16 00:01:51;;;;;;;1.33;1.13;;;25.20;51.50;;;;;;5020775;28;20547;-65
2023/09/16 00:04:17;;;;;;;2.10;1.15;;;25.20;51.60;;;;;;5021130;28;20104;-65
2023/09/16 00:06:43;;;;;;;1.95;1.20;;;25.10;51.50;;;;;;5021590;28;20501;-65
2023/09/16 00:09:09;;;;;;;1.50;1.10;;;25.10;51.50;;;;;;5020805;28;20111;-65
2023/09/16 00:11:35;;;;;;;1.73;1.30;;;25.10;51.50;;;;;;5022612;28;20034;-65
2023/09/16 00:14:00;;;;;;;1.50;1.10;;;25.20;51.60;;;;;;5022631;28;20030;-65
2023/09/16 00:16:26;;;;;;;1.95;1.20;;;25.10;51.50;;;;;;5020679;28;20551;-65
2023/09/16 00:18:52;;;;;;;1.85;1.17;;;25.10;51.60;;;;;;5021991;28;20535;-64
2023/09/16 00:21:18;;;;;;;1.65;1.20;;;25.10;51.60;;;;;;5023056;28;20022;-65
2023/09/16 00:23:43;;;;;;;1.45;1.10;;;25.10;51.60;;;;;;5019789;28;20156;-64
2023/09/16 00:26:09;;;;;;;1.80;1.20;;;25.10;52.10;;;;;;5021672;28;20477;-64
2023/09/16 00:28:35;;;;;;;1.60;1.20;;;25.10;51.60;;;;;;5021474;28;20048;-64
2023/09/16 00:31:02;;;;;;;1.30;1.08;;;25.10;51.60;;;;;;5020787;28;20045;-64
2023/09/16 00:33:29;;;;;;;1.48;1.08;;;25.10;51.60;;;;;;5022918;28;20029;-65
2023/09/16 00:35:56;;;;;;;1.42;1.10;;;25.10;51.70;;;;;;5024259;28;20029;-64
2023/09/16 00:38:22;;;;;;;2.00;1.20;;;25.10;51.70;;;;;;5021519;28;20022;-65
2023/09/16 00:40:47;;;;;;;1.60;1.27;;;25.10;51.70;;;;;;5021922;28;20069;-64
2023/09/16 00:43:13;;;;;;;1.67;1.27;;;25.10;51.70;;;;;;5021774;28;20091;-65
2023/09/16 00:45:41;;;;;;;1.08;0.90;;;25.10;51.70;;;;;;5021049;28;20060;-64
2023/09/16 00:48:07;;;;;;;1.55;1.10;;;25.10;51.70;;;;;;5020806;28;20025;-65
2023/09/16 00:50:33;;;;;;;2.05;1.00;;;25.00;51.70;;;;;;5020181;28;20046;-65
2023/09/16 00:52:59;;;;;;;1.60;1.17;;;25.00;51.70;;;;;;5021120;28;20098;-65
2023/09/16 00:55:26;;;;;;;1.48;1.15;;;25.10;51.70;;;;;;5023005;28;20044;-65
2023/09/16 00:57:54;;;;;;;1.77;1.30;;;25.00;51.70;;;;;;5022465;28;20109;-64
2023/09/16 01:00:23;;;;;;;1.50;1.25;;;25.10;51.70;;;;;;5020577;28;20109;-62
2023/09/16 01:02:49;;;;;;;1.40;1.10;;;25.00;51.70;;;;;;5021017;28;20485;-62
2023/09/16 01:05:15;;;;;;;1.40;1.10;;;25.00;51.70;;;;;;5021388;28;20034;-62
2023/09/16 01:07:41;;;;;;;1.85;1.15;;;25.00;51.70;;;;;;5022974;28;20030;-62
2023/09/16 01:10:10;;;;;;;1.50;1.10;;;25.00;51.70;;;;;;5020904;28;20032;-63
2023/09/16 01:12:37;;;;;;;1.52;1.10;;;25.00;51.70;;;;;;5021573;28;20030;-66
2023/09/16 01:15:06;;;;;;;1.42;1.08;;;25.00;51.80;;;;;;5021240;28;20515;-66
2023/09/16 01:17:36;;;;;;;1.23;1.00;;;25.00;51.80;;;;;;5019317;28;20036;-65
2023/09/16 01:20:06;;;;;;;1.52;1.10;;;25.00;51.70;;;;;;5021944;28;20036;-67
2023/09/16 01:22:33;;;;;;;1.30;1.08;;;25.00;51.80;;;;;;5021866;28;20473;-67
2023/09/16 01:25:05;;;;;;;1.20;1.00;;;25.00;51.80;;;;;;5020875;28;20025;-67
2023/09/16 01:27:31;;;;;;;1.40;1.05;;;25.00;51.80;;;;;;5019858;28;20458;-66
2023/09/16 01:29:58;;;;;;;1.33;1.10;;;25.00;51.80;;;;;;5021287;28;20026;-66
2023/09/16 01:32:30;;;;;;;1.70;1.10;;;25.00;51.80;;;;;;5020090;28;20042;-67
2023/09/16 01:35:00;;;;;;;1.35;1.10;;;25.00;52.00;;;;;;5012094;28;20033;-66
2023/09/16 01:37:27;;;;;;;1.52;1.20;;;25.00;51.80;;;;;;5022638;28;20030;-66
2023/09/16 01:39:57;;;;;;;1.23;1.00;;;24.90;51.80;;;;;;5021158;28;20120;-67
2023/09/16 01:42:26;;;;;;;1.60;1.27;;;24.90;51.80;;;;;;5019644;28;20339;-66
2023/09/16 01:44:56;;;;;;;1.20;1.10;;;24.90;51.80;;;;;;5022896;28;20397;-66
2023/09/16 01:47:22;;;;;;;1.23;1.00;;;24.90;51.80;;;;;;5021574;28;20033;-66
2023/09/16 01:49:47;;;;;;;1.35;1.08;;;24.90;51.80;;;;;;5019109;28;20055;-66
2023/09/16 01:52:16;;;;;;;1.63;1.30;;;24.90;51.80;;;;;;5019859;28;20029;-65
2023/09/16 01:54:42;;;;;;;1.45;1.20;;;24.90;51.90;;;;;;5020861;28;20809;-65
2023/09/16 01:57:07;;;;;;;1.55;1.10;;;24.90;51.90;;;;;;5022218;28;20034;-65
2023/09/16 01:59:33;;;;;;;1.40;1.10;;;24.90;51.90;;;;;;5020557;28;20034;-65
2023/09/16 02:01:59;;;;;;;1.25;1.00;;;24.90;51.90;;;;;;5027747;28;20025;-65
2023/09/16 02:04:24;;;;;;;1.25;1.10;;;24.90;51.90;;;;;;5019760;28;20033;-65
2023/09/16 02:06:50;;;;;;;1.30;1.10;;;24.90;51.90;;;;;;5022038;28;20105;-65
2023/09/16 02:09:16;;;;;;;1.17;1.00;;;24.90;51.90;;;;;;5020491;28;20044;-65
2023/09/16 02:11:41;;;;;;;1.65;1.10;;;24.80;51.90;;;;;;5020221;28;20520;-67
2023/09/16 02:14:15;;;;;;;1.33;1.10;;;24.90;51.90;;;;;;5020103;28;20481;-66
2023/09/16 02:16:41;;;;;;;1.80;1.30;;;24.80;51.80;;;;;;5018090;28;20049;-66
2023/09/16 02:19:07;;;;;;;1.65;1.20;;;24.90;51.90;;;;;;5016849;28;20448;-66
2023/09/16 02:21:32;;;;;;;1.40;1.10;;;24.90;52.40;;;;;;5016115;28;20454;-65
2023/09/16 02:23:58;;;;;;;1.52;1.20;;;24.80;51.90;;;;;;5018774;28;20109;-63
2023/09/16 02:26:24;;;;;;;1.25;1.00;;;24.80;51.90;;;;;;5019321;28;20063;-62
2023/09/16 02:28:49;;;;;;;1.38;1.10;;;24.80;51.90;;;;;;5019274;28;20441;-62
2023/09/16 02:31:16;;;;;;;1.17;1.00;;;24.80;51.90;;;;;;5018693;28;20034;-64
2023/09/16 02:33:41;;;;;;;1.20;1.00;;;24.80;51.90;;;;;;5020747;28;20040;-63
2023/09/16 02:36:07;;;;;;;1.25;1.10;;;24.80;51.90;;;;;;5018720;28;20033;-63
2023/09/16 02:38:33;;;;;;;1.35;1.10;;;24.80;51.90;;;;;;5019941;28;20037;-63
2023/09/16 02:41:03;;;;;;;1.58;1.00;;;24.80;51.90;;;;;;5019186;28;20021;-63
2023/09/16 02:43:29;;;;;;;1.48;1.20;;;24.80;51.90;;;;;;5019751;28;20091;-62
2023/09/16 02:45:58;;;;;;;1.30;1.00;;;24.80;51.90;;;;;;5021233;28;20048;-62
2023/09/16 02:48:24;;;;;;;1.10;1.00;;;24.80;51.90;;;;;;5020070;28;20033;-63
2023/09/16 02:50:49;;;;;;;1.40;1.20;;;24.80;51.90;;;;;;5019663;28;20037;-63
2023/09/16 02:53:16;;;;;;;1.27;1.08;;;24.80;51.90;;;;;;5019835;28;20030;-63
2023/09/16 02:55:42;;;;;;;1.42;1.13;;;24.80;52.00;;;;;;5018145;28;20018;-62
2023/09/16 02:58:08;;;;;;;1.50;1.13;;;24.80;52.00;;;;;;5018046;28;20342;-64
2023/09/16 03:00:34;;;;;;;1.08;0.95;;;24.80;52.00;;;;;;5019345;28;20933;-62
2023/09/16 03:02:59;;;;;;;1.20;1.00;;;24.80;52.00;;;;;;5019310;28;20461;-67
2023/09/16 03:05:25;;;;;;;1.10;0.93;;;24.80;52.00;;;;;;5019050;28;20426;-66
2023/09/16 03:07:51;;;;;;;1.08;0.88;;;24.80;52.50;;;;;;5018000;28;20104;-66
2023/09/16 03:10:17;;;;;;;1.00;0.90;;;24.80;52.00;;;;;;5019224;28;20025;-66
2023/09/16 03:12:43;;;;;;;1.45;1.10;;;24.80;52.00;;;;;;5022712;28;20096;-66
2023/09/16 03:15:10;;;;;;;1.48;1.15;;;24.80;52.00;;;;;;5020138;28;20030;-66
2023/09/16 03:17:35;;;;;;;1.30;1.00;;;24.80;52.00;;;;;;5017487;28;20492;-66
2023/09/16 03:20:01;;;;;;;1.10;0.90;;;24.80;52.00;;;;;;5016860;28;20045;-66
2023/09/16 03:22:27;;;;;;;1.23;1.00;;;24.80;52.00;;;;;;5021116;28;20051;-66
2023/09/16 03:24:52;;;;;;;1.30;0.90;;;24.70;52.00;;;;;;5017868;28;20080;-67
2023/09/16 03:27:19;;;;;;;1.17;0.90;;;24.80;52.00;;;;;;5018724;28;20033;-66
2023/09/16 03:29:44;;;;;;;1.25;1.05;;;24.80;52.00;;;;;;5017867;28;20045;-65
2023/09/16 03:32:10;;;;;;;1.20;1.00;;;24.70;52.00;;;;;;5019347;28;20727;-69
2023/09/16 03:34:35;;;;;;;1.55;1.17;;;24.80;52.00;;;;;;5020598;28;20034;-68
2023/09/16 03:37:01;;;;;;;1.33;1.02;;;24.70;52.00;;;;;;5018743;28;20659;-68
2023/09/16 03:39:27;;;;;;;1.35;1.00;;;24.70;52.00;;;;;;5018480;28;20061;-68
2023/09/16 03:41:54;;;;;;;1.30;1.00;;;24.70;52.00;;;;;;5019586;28;20075;-68
2023/09/16 03:44:19;;;;;;;1.45;1.00;;;24.70;52.00;;;;;;5019196;28;20034;-68
2023/09/16 03:46:45;;;;;;;1.10;1.00;;;24.80;52.10;;;;;;5020751;28;20112;-67
2023/09/16 03:49:11;;;;;;;1.50;1.05;;;24.70;52.10;;;;;;5018874;28;20405;-67
2023/09/16 03:51:37;;;;;;;1.55;1.13;;;24.70;52.10;;;;;;5015432;28;20033;-68
2023/09/16 03:54:06;;;;;;;1.52;1.10;;;24.70;52.10;;;;;;5018119;28;20034;-68
2023/09/16 03:56:32;;;;;;;1.00;0.93;;;24.70;52.10;;;;;;5019500;28;20033;-68
2023/09/16 03:58:58;;;;;;;1.17;0.90;;;24.70;52.10;;;;;;5019451;28;20041;-70
2023/09/16 04:01:24;;;;;;;1.05;0.90;;;24.60;52.00;;;;;;5018143;28;20033;-69
2023/09/16 04:03:50;;;;;;;1.30;1.00;;;24.70;52.10;;;;;;5012735;28;20124;-68
2023/09/16 04:06:15;;;;;;;1.20;1.05;;;24.70;52.10;;;;;;5017801;28;20026;-68
2023/09/16 04:08:41;;;;;;;1.02;0.90;;;24.70;52.10;;;;;;5018774;28;20064;-68
2023/09/16 04:11:07;;;;;;;1.30;1.00;;;24.60;52.00;;;;;;5019118;28;20030;-65
2023/09/16 04:13:33;;;;;;;1.33;1.00;;;24.70;52.10;;;;;;5018524;28;20029;-63
2023/09/16 04:15:58;;;;;;;1.20;1.00;;;24.70;52.10;;;;;;5020040;28;20041;-63
2023/09/16 04:18:24;;;;;;;1.50;1.00;;;24.60;52.00;;;;;;5017270;28;20104;-65
2023/09/16 04:20:55;;;;;;;1.17;0.90;;;24.60;52.00;;;;;;5017720;28;20041;-65
2023/09/16 04:23:21;;;;;;;1.35;0.98;;;24.60;52.00;;;;;;5019769;28;20155;-65
2023/09/16 04:25:46;;;;;;;1.60;1.10;;;24.60;52.00;;;;;;5017012;28;20121;-65
2023/09/16 04:28:17;;;;;;;1.42;1.10;;;24.60;52.10;;;;;;5018539;28;20121;-65
2023/09/16 04:30:49;;;;;;;1.15;1.00;;;24.60;52.10;;;;;;5016628;28;20030;-65
2023/09/16 04:33:16;;;;;;;1.40;1.00;;;24.60;52.10;;;;;;5018102;28;20034;-68
2023/09/16 04:35:46;;;;;;;1.75;1.30;;;24.60;52.10;;;;;;5017103;28;20393;-68
2023/09/16 04:38:13;;;;;;;2.00;1.30;;;24.60;52.10;;;;;;5015332;28;20061;-68
2023/09/16 04:40:42;;;;;;;2.33;1.50;;;24.60;52.20;;;;;;5016797;28;20036;-68
2023/09/16 04:43:08;;;;;;;2.10;1.60;;;24.60;52.20;;;;;;5019106;28;20056;-65
2023/09/16 04:45:33;;;;;;;2.25;1.50;;;24.60;52.20;;;;;;5022520;28;20029;-65
2023/09/16 04:48:00;;;;;;;2.30;1.50;;;24.60;52.20;;;;;;5020590;28;20033;-64
2023/09/16 04:50:29;;;;;;;1.90;1.42;;;24.60;52.20;;;;;;5020547;28;20037;-66
2023/09/16 04:52:55;;;;;;;2.67;1.60;;;24.60;52.20;;;;;;5020963;28;20488;-63
2023/09/16 04:55:21;;;;;;;1.92;1.60;;;24.50;52.20;;;;;;5019664;28;20390;-64
2023/09/16 04:57:47;;;;;;;2.25;1.60;;;24.60;52.40;;;;;;5021613;28;20030;-64
2023/09/16 05:00:13;;;;;;;2.80;1.75;;;24.60;52.30;;;;;;5021670;28;20037;-65
2023/09/16 05:02:38;;;;;;;2.50;1.65;;;24.60;52.40;;;;;;5020400;28;20034;-65
2023/09/16 05:05:04;;;;;;;2.70;1.80;;;24.50;52.30;;;;;;5020693;28;20037;-64
2023/09/16 05:07:30;;;;;;;2.22;1.80;;;24.50;52.30;;;;;;5021636;28;20034;-64
2023/09/16 05:09:56;;;;;;;1.98;1.63;;;24.50;52.30;;;;;;5022024;28;20490;-64
2023/09/16 05:12:22;;;;;;;2.08;1.60;;;24.50;52.30;;;;;;5021502;28;20099;-65
2023/09/16 05:14:49;;;;;;;2.47;1.80;;;24.50;52.30;;;;;;5021982;28;20084;-65
2023/09/16 05:17:15;;;;;;;2.13;1.42;;;24.50;52.30;;;;;;5022163;28;20515;-66
2023/09/16 05:19:40;;;;;;;2.35;1.70;;;24.50;52.30;;;;;;5019921;28;20026;-66
2023/09/16 05:22:06;;;;;;;2.58;1.70;;;24.50;52.30;;;;;;5018014;28;20497;-66
2023/09/16 05:24:32;;;;;;;2.45;1.80;;;24.50;52.30;;;;;;5021359;28;20025;-66
2023/09/16 05:26:57;;;;;;;1.95;1.45;;;24.50;52.30;;;;;;5019685;28;20030;-65
2023/09/16 05:29:23;;;;;;;2.22;1.48;;;24.50;52.30;;;;;;5021778;28;20029;-65
2023/09/16 05:31:49;;;;;;;2.75;1.60;;;24.50;52.30;;;;;;5019433;28;20088;-61
2023/09/16 05:34:15;;;;;;;2.17;1.52;;;24.50;52.30;;;;;;5019255;28;20073;-63
2023/09/16 05:36:41;;;;;;;2.63;1.80;;;24.50;52.30;;;;;;5019171;28;20385;-61
2023/09/16 05:39:06;;;;;;;2.10;1.55;;;24.50;52.30;;;;;;5022064;28;20049;-61
2023/09/16 05:41:33;;;;;;;2.70;1.70;;;24.50;52.30;;;;;;5021239;28;20026;-61
2023/09/16 05:43:58;;;;;;;2.80;1.63;;;24.50;52.30;;;;;;5020835;28;20112;-62
2023/09/16 05:46:24;;;;;;;2.47;1.63;;;24.50;52.30;;;;;;5020279;28;20104;-63
2023/09/16 05:48:50;;;;;;;2.33;1.60;;;24.50;52.80;;;;;;5020467;28;20116;-62
2023/09/16 05:51:15;;;;;;;2.50;1.80;;;24.50;52.30;;;;;;5020658;28;20029;-62
2023/09/16 05:53:42;;;;;;;2.20;1.60;;;24.50;52.30;;;;;;5018437;28;20184;-61
2023/09/16 05:56:08;;;;;;;2.40;1.70;;;24.50;52.30;;;;;;5020709;28;20029;-62
2023/09/16 05:58:35;;;;;;;2.10;1.50;;;24.50;52.30;;;;;;5021015;28;20025;-62
2023/09/16 06:01:01;;;;;;;2.35;1.50;;;24.50;52.30;;;;;;5019626;28;20037;-64
2023/09/16 06:03:27;;;;;;;2.13;1.50;;;24.50;52.30;;;;;;5020414;28;20029;-62
2023/09/16 06:06:01;;;;;;;2.53;1.80;;;24.50;52.30;;;;;;5019206;28;20477;-61
2023/09/16 06:08:27;;;;;;;2.15;1.35;;;24.40;52.30;;;;;;5020555;28;20033;-61
2023/09/16 06:10:52;;;;;;;2.30;1.50;;;24.40;52.30;;;;;;5018707;28;20029;-61
2023/09/16 06:13:18;;;;;;;2.17;1.58;;;24.40;52.30;;;;;;5020690;28;20032;-61
2023/09/16 06:15:44;;;;;;;1.95;1.55;;;24.40;52.30;;;;;;5020727;28;20038;-62
2023/09/16 06:18:10;;;;;;;2.10;1.60;;;24.40;52.30;;;;;;5019472;28;20017;-61
2023/09/16 06:20:35;;;;;;;2.50;1.80;;;24.40;52.30;;;;;;5019949;28;20053;-62
2023/09/16 06:23:04;;;;;;;2.63;1.67;;;24.40;52.30;;;;;;5017713;28;20363;-67
2023/09/16 06:25:30;;;;;;;2.03;1.60;;;24.40;52.30;;;;;;5019774;28;20053;-67
2023/09/16 06:27:58;;;;;;;2.40;1.80;;;24.40;52.30;;;;;;5020434;28;20038;-67
2023/09/16 06:30:24;;;;;;;2.08;1.50;;;24.40;52.80;;;;;;5017817;28;20030;-67
2023/09/16 06:32:52;;;;;;;2.28;1.60;;;24.40;52.30;;;;;;5021167;28;20382;-67
2023/09/16 06:35:17;;;;;;;2.40;1.60;;;24.40;52.30;;;;;;5018906;28;20427;-66
2023/09/16 06:37:43;;;;;;;2.00;1.50;;;24.40;52.30;;;;;;5017058;28;20165;-67
2023/09/16 06:40:09;;;;;;;2.20;1.50;;;24.40;52.30;;;;;;5021012;28;20422;-67
2023/09/16 06:42:35;;;;;;;2.90;1.88;;;24.40;52.40;;;;;;5022371;28;20022;-60
2023/09/16 06:45:00;;;;;;;2.15;1.52;;;24.40;52.30;;;;;;5019691;28;20072;-61
2023/09/16 06:47:26;;;;;;;2.13;1.50;;;24.40;52.30;;;;;;5020140;28;20062;-61
2023/09/16 06:49:52;;;;;;;2.33;1.55;;;24.40;52.30;;;;;;5019437;28;20059;-61
2023/09/16 06:52:18;;;;;;;2.20;1.65;;;24.30;52.20;;;;;;5019383;28;20079;-67
2023/09/16 06:54:45;;;;;;;2.30;1.70;;;24.40;52.30;;;;;;5018703;28;20038;-67
2023/09/16 06:57:10;;;;;;;1.75;1.50;;;24.40;52.30;;;;;;5018735;28;20032;-67
2023/09/16 06:59:36;;;;;;;2.38;1.70;;;24.30;52.20;;;;;;5018921;28;20026;-67
2023/09/16 07:02:02;;;;;;;2.00;1.50;;;24.40;52.30;;;;;;5018355;28;20450;-67
2023/09/16 07:04:27;;;;;;;2.42;1.75;;;24.30;52.20;;;;;;5016546;28;20025;-67
2023/09/16 07:06:53;;;;;;;2.33;1.50;;;24.30;52.20;;;;;;5019117;28;20030;-67
2023/09/16 07:09:18;;;;;;;2.00;1.60;;;24.30;52.20;;;;;;5019196;28;20548;-68
2023/09/16 07:11:44;;;;;;;1.95;1.48;;;24.40;52.30;;;;;;5018326;28;20036;-67
2023/09/16 07:14:10;;;;;;;3.20;1.77;;;24.30;52.20;;;;;;5022683;28;20892;-67
2023/09/16 07:16:40;;;;;;;2.08;1.60;;;24.30;52.20;;;;;;5018229;28;20505;-67
2023/09/16 07:19:06;;;;;;;2.45;1.60;;;24.30;52.20;;;;;;5018785;28;20504;-67
2023/09/16 07:21:32;;;;;;;2.15;1.65;;;24.30;52.20;;;;;;5017755;28;20530;-67
2023/09/16 07:24:01;;;;;;;2.70;1.80;;;24.30;52.20;;;;;;5017545;28;20116;-67
2023/09/16 07:26:30;;;;;;;2.47;1.85;;;24.30;52.20;;;;;;5019059;28;20535;-67
2023/09/16 07:28:57;;;;;;;2.08;1.60;;;24.30;52.20;;;;;;5017796;28;20044;-69
2023/09/16 07:31:22;;;;;;;2.53;1.80;;;24.30;52.20;;;;;;5019049;28;20026;-70
2023/09/16 07:33:48;;;;;;;2.40;1.70;;;24.30;52.20;;;;;;5019616;28;20034;-70
2023/09/16 07:36:14;;;;;;;2.17;1.67;;;24.30;52.20;;;;;;5020439;28;20075;-69
2023/09/16 07:38:39;;;;;;;2.63;1.90;;;24.30;52.20;;;;;;5017391;28;20386;-70
2023/09/16 07:41:05;;;;;;;2.40;1.77;;;24.30;52.30;;;;;;5017431;28;20029;-69
2023/09/16 07:43:30;;;;;;;2.20;1.60;;;24.30;52.20;;;;;;5019843;28;20033;-69
2023/09/16 07:45:58;;;;;;;1.98;1.67;;;24.30;52.30;;;;;;5019456;28;20038;-70
2023/09/16 07:48:23;;;;;;;2.75;1.85;;;24.30;52.30;;;;;;5018436;28;20033;-69
2023/09/16 07:50:49;;;;;;;2.53;1.60;;;24.30;52.30;;;;;;5016397;28;20022;-70
2023/09/16 07:53:15;;;;;;;2.22;1.70;;;24.30;52.30;;;;;;5016826;28;20499;-65
2023/09/16 07:55:41;;;;;;;2.47;1.70;;;24.30;52.30;;;;;;5017717;28;20164;-68
2023/09/16 07:58:11;;;;;;;2.42;1.60;;;24.30;52.30;;;;;;5017737;28;20033;-68
2023/09/16 08:00:36;;;;;;;2.40;1.73;;;24.30;52.30;;;;;;5021015;28;20021;-67
2023/09/16 08:03:02;;;;;;;2.20;1.70;;;24.30;52.30;;;;;;5019040;28;20037;-63
2023/09/16 08:05:28;;;;;;;2.17;1.70;;;24.30;52.30;;;;;;5017954;28;20548;-62
2023/09/16 08:07:53;;;;;;;2.30;1.70;;;24.30;52.40;;;;;;5018575;28;20123;-62
2023/09/16 08:10:19;;;;;;;2.70;1.80;;;24.30;52.40;;;;;;5016776;28;20458;-65
2023/09/16 08:12:45;;;;;;;2.20;1.60;;;24.30;52.40;;;;;;5016194;28;20033;-65
2023/09/16 08:15:10;;;;;;;2.25;1.50;;;24.30;52.40;;;;;;5019157;28;20125;-63
2023/09/16 08:17:39;;;;;;;2.55;1.75;;;24.30;52.40;;;;;;5019004;28;20579;-63
2023/09/16 08:20:06;;;;;;;2.70;1.77;;;24.30;52.40;;;;;;5022433;28;20022;-62
2023/09/16 08:22:31;;;;;;;2.53;1.75;;;24.30;52.40;;;;;;5022920;28;20348;-63
2023/09/16 08:24:57;;;;;;;2.30;1.67;;;24.30;52.40;;;;;;5020226;28;20430;-62
2023/09/16 08:27:22;;;;;;;2.40;1.67;;;24.20;52.30;;;;;;5020999;28;20034;-64
2023/09/16 08:29:52;;;;;;;2.35;1.83;;;24.20;52.30;;;;;;5021285;28;20461;-63
2023/09/16 08:32:18;;;;;;;2.53;1.70;;;24.30;52.40;;;;;;5021463;28;20428;-62
2023/09/16 08:34:44;;;;;;;2.50;1.80;;;24.30;52.40;;;;;;5022695;28;20044;-63
2023/09/16 08:37:11;;;;;;;2.45;1.67;;;24.20;52.30;;;;;;5020359;28;20163;-64
2023/09/16 08:39:37;;;;;;;2.08;1.63;;;24.30;52.40;;;;;;5021671;28;20024;-63
2023/09/16 08:42:05;;;;;;;2.10;1.67;;;24.20;52.40;;;;;;5019961;28;20385;-64
2023/09/16 08:44:36;;;;;;;2.00;1.65;;;24.20;52.40;;;;;;5023626;28;20527;-63
2023/09/16 08:47:09;;;;;;;2.20;1.60;;;24.30;52.50;;;;;;5022306;28;20041;-64
2023/09/16 08:49:42;;;;;;;2.50;1.83;;;24.20;52.40;;;;;;5023325;28;20032;-62
2023/09/16 08:52:11;;;;;;;2.25;1.70;;;24.30;52.50;;;;;;5021097;28;20052;-66
2023/09/16 08:54:39;;;;;;;2.57;1.60;;;24.30;52.50;;;;;;5020399;28;20030;-65
2023/09/16 08:57:06;;;;;;;2.35;1.60;;;24.20;52.50;;;;;;5018895;28;20025;-66
2023/09/16 08:59:36;;;;;;;2.40;1.67;;;24.20;52.50;;;;;;5021306;28;20088;-66
2023/09/16 09:02:02;;;;;;;2.70;1.80;;;24.30;52.50;;;;;;5024110;28;20026;-65
2023/09/16 09:04:28;;;;;;;2.20;1.63;;;24.30;52.60;;;;;;5021168;28;20108;-67
2023/09/16 09:06:56;;;;;;;2.20;1.70;;;24.20;52.50;;;;;;5020945;28;20029;-67
2023/09/16 09:09:21;;;;;;;2.08;1.60;;;24.30;52.50;;;;;;5021247;28;20112;-67
2023/09/16 09:11:48;;;;;;;2.20;1.75;;;24.20;52.50;;;;;;5019923;28;20113;-67
2023/09/16 09:14:15;;;;;;;2.33;1.70;;;24.30;52.60;;;;;;5022515;28;20045;-67
2023/09/16 09:16:43;;;;;;;2.28;1.60;;;24.30;52.60;;;;;;5021642;28;20513;-68
2023/09/16 09:19:11;;;;;;;2.10;1.70;;;24.20;52.50;;;;;;5019840;28;20044;-67
2023/09/16 09:21:36;;;;;;;2.25;1.75;;;24.20;53.00;;;;;;5022292;28;20033;-68
2023/09/16 09:24:02;;;;;;;2.50;1.80;;;24.30;52.60;;;;;;5022059;28;20045;-70
2023/09/16 09:26:28;;;;;;;2.58;1.88;;;24.20;52.50;;;;;;5019864;28;20116;-69
2023/09/16 09:28:54;;;;;;;1.90;1.52;;;24.30;52.60;;;;;;5020135;28;20038;-69
2023/09/16 09:31:19;;;;;;;2.10;1.70;;;24.30;52.60;;;;;;5019978;28;20037;-69
2023/09/16 09:33:48;;;;;;;2.53;1.83;;;24.30;52.60;;;;;;5034742;28;20026;-64
2023/09/16 09:36:18;;;;;;;1.97;1.53;;;24.30;52.60;;;;;;5019266;28;20093;-63
2023/09/16 09:38:45;;;;;;;2.22;1.73;;;24.30;52.60;;;;;;5018451;28;20017;-65
2023/09/16 09:41:13;;;;;;;1.98;1.65;;;24.20;52.60;;;;;;5020353;28;20025;-64
2023/09/16 09:43:38;;;;;;;2.08;1.65;;;24.30;52.60;;;;;;5022693;28;20048;-64
2023/09/16 09:46:04;;;;;;;2.40;1.65;;;24.30;52.60;;;;;;5018675;28;20029;-63
2023/09/16 09:48:31;;;;;;;2.05;1.58;;;24.30;52.60;;;;;;5022570;28;20065;-64
2023/09/16 09:50:57;;;;;;;2.60;1.88;;;24.30;52.70;;;;;;5020916;28;20112;-63
2023/09/16 09:53:24;;;;;;;2.20;1.67;;;24.30;52.70;;;;;;5017844;28;20591;-64
2023/09/16 09:55:50;;;;;;;2.22;1.70;;;24.30;52.70;;;;;;5021386;28;20474;-65
2023/09/16 09:58:17;;;;;;;2.10;1.77;;;24.30;52.70;;;;;;5019089;28;20037;-64
2023/09/16 10:00:47;;;;;;;2.38;1.80;;;24.30;52.70;;;;;;5019929;28;20026;-63
2023/09/16 10:03:14;;;;;;;2.50;1.67;;;24.30;52.70;;;;;;5013135;28;20483;-62
2023/09/16 10:05:40;;;;;;;2.00;1.50;;;24.30;52.70;;;;;;5021200;28;20084;-63
2023/09/16 10:08:06;;;;;;;2.10;1.60;;;24.30;52.80;;;;;;5019322;28;20025;-64
2023/09/16 10:10:32;;;;;;;2.40;1.70;;;24.30;52.80;;;;;;5019341;28;20397;-63
2023/09/16 10:12:58;;;;;;;2.47;1.80;;;24.30;52.80;;;;;;5019720;28;20034;-67
2023/09/16 10:15:34;;;;;;;2.20;1.70;;;24.30;52.80;;;;;;5020104;28;20123;-68
2023/09/16 10:18:01;;;;;;;2.20;1.77;;;24.30;52.80;;;;;;5021919;28;20497;-67
2023/09/16 10:20:31;;;;;;;2.40;1.70;;;24.30;52.80;;;;;;5019908;28;20113;-67
2023/09/16 10:22:57;;;;;;;2.13;1.60;;;24.30;52.80;;;;;;5018682;28;20380;-68
2023/09/16 10:25:23;;;;;;;2.45;1.90;;;24.30;52.90;;;;;;5017355;28;20026;-68
2023/09/16 10:27:57;;;;;;;1.85;1.52;;;24.30;52.90;;;;;;5019920;28;20080;-67
2023/09/16 10:30:23;;;;;;;2.65;1.70;;;24.30;52.90;;;;;;5020431;28;20488;-68
2023/09/16 10:32:49;;;;;;;2.03;1.60;;;24.30;52.90;;;;;;5021137;28;20097;-66
2023/09/16 10:35:15;;;;;;;2.30;1.70;;;24.30;52.90;;;;;;5019480;28;20152;-66
2023/09/16 10:37:42;;;;;;;2.13;1.60;;;24.30;52.90;;;;;;5019629;28;20525;-66
2023/09/16 10:40:10;;;;;;;2.40;1.83;;;24.30;52.80;;;;;;5020236;28;20060;-65
2023/09/16 10:42:37;;;;;;;2.00;1.58;;;24.30;52.80;;;;;;5019470;28;20025;-65
2023/09/16 10:45:03;;;;;;;2.85;1.85;;;24.30;52.90;;;;;;5019364;28;20014;-63
2023/09/16 10:47:30;;;;;;;2.50;2.10;;;24.30;52.90;;;;;;5017083;28;20041;-64
2023/09/16 10:49:56;;;;;;;3.42;2.10;;;24.30;53.00;;;;;;5020874;28;20465;-63
2023/09/16 10:52:38;;;;;;;2.03;1.70;;;24.30;53.00;;;;;;5017252;28;20076;-63
2023/09/16 10:55:22;;;;;;;2.50;1.90;;;24.30;53.10;;;;;;5018587;28;20026;-63
2023/09/16 10:58:03;;;;;;;2.30;1.80;;;24.30;53.10;;;;;;5019711;28;20025;-65
2023/09/16 11:00:37;;;;;;;2.70;2.03;;;24.30;53.10;;;;;;5019302;28;20100;-64
2023/09/16 11:03:05;;;;;;;2.50;2.00;;;24.30;53.10;;;;;;5017255;28;20493;-63
2023/09/16 11:05:33;;;;;;;2.30;1.83;;;24.30;53.20;;;;;;5018996;28;20044;-63
2023/09/16 11:07:58;;;;;;;3.33;2.00;;;24.30;53.20;;;;;;5020320;28;20102;-63
2023/09/16 11:10:25;;;;;;;2.90;1.80;;;24.30;53.30;;;;;;5017025;28;20397;-64
2023/09/16 11:12:51;;;;;;;2.30;1.90;;;24.30;53.30;;;;;;5019836;28;20458;-63
2023/09/16 11:15:18;;;;;;;2.47;1.90;;;24.30;53.40;;;;;;5019814;28;20029;-64
2023/09/16 11:17:44;;;;;;;2.30;1.90;;;24.30;53.40;;;;;;5018631;28;20489;-63
2023/09/16 11:20:28;;;;;;;2.55;1.77;;;24.30;53.50;;;;;;5017764;28;20083;-63
2023/09/16 11:22:54;;;;;;;2.70;2.20;;;24.30;53.60;;;;;;5011147;28;20030;-70
2023/09/16 11:25:19;;;;;;;2.42;1.85;;;24.30;53.70;;;;;;5017523;28;20040;-70
2023/09/16 11:27:46;;;;;;;2.65;2.10;;;24.30;53.80;;;;;;5018446;28;20029;-69
2023/09/16 11:30:13;;;;;;;2.58;1.90;;;24.30;53.80;;;;;;5020019;28;20117;-69
2023/09/16 11:32:55;;;;;;;2.50;1.90;;;24.30;53.90;;;;;;5015161;28;20482;-69
2023/09/16 11:35:20;;;;;;;2.80;2.10;;;24.30;53.90;;;;;;5016601;28;20029;-69
2023/09/16 11:37:46;;;;;;;2.28;1.90;;;24.30;53.90;;;;;;5019018;28;20381;-70
2023/09/16 11:40:13;;;;;;;2.97;2.20;;;24.30;54.00;;;;;;5015921;28;20030;-70
2023/09/16 11:42:39;;;;;;;2.60;2.03;;;24.30;53.90;;;;;;5019540;28;20359;-70
2023/09/16 11:45:05;;;;;;;2.38;1.92;;;24.30;53.90;;;;;;5018222;28;20033;-70
2023/09/16 11:47:32;;;;;;;2.67;1.85;;;24.30;53.90;;;;;;5016955;28;20388;-70
2023/09/16 11:49:58;;;;;;;2.63;1.83;;;24.30;53.80;;;;;;5019078;28;20104;-70
2023/09/16 11:52:25;;;;;;;2.33;1.77;;;24.30;53.80;;;;;;5019839;28;20088;-66
2023/09/16 11:54:51;;;;;;;2.40;1.90;;;24.30;53.80;;;;;;5013144;28;20556;-66
2023/09/16 11:57:18;;;;;;;2.53;1.92;;;24.30;53.80;;;;;;5022874;28;20032;-65
2023/09/16 11:59:46;;;;;;;2.42;2.00;;;24.30;53.80;;;;;;5022518;28;20500;-66
2023/09/16 12:02:11;;;;;;;2.53;1.70;;;24.30;53.70;;;;;;5023200;28;20442;-66
2023/09/16 12:04:38;;;;;;;2.47;1.92;;;24.30;53.80;;;;;;5021847;28;20036;-66
2023/09/16 12:07:04;;;;;;;2.42;1.90;;;24.40;53.80;;;;;;5022879;28;20056;-66
2023/09/16 12:09:32;;;;;;;2.30;1.77;;;24.30;53.70;;;;;;5022091;28;20404;-66
2023/09/16 12:11:58;;;;;;;3.63;2.10;;;24.30;53.70;;;;;;5022595;28;20103;-66
2023/09/16 12:14:24;;;;;;;2.50;2.00;;;24.30;53.70;;;;;;5019381;28;20056;-66
2023/09/16 12:16:53;;;;;;;2.40;2.10;;;24.40;53.80;;;;;;5021188;28;20033;-66
2023/09/16 12:19:19;;;;;;;2.60;1.80;;;24.40;53.90;;;;;;5022079;28;20041;-66
2023/09/16 12:21:48;;;;;;;2.60;1.92;;;24.30;53.80;;;;;;5022818;28;20038;-66
2023/09/16 12:24:21;;;;;;;;;;;24.30;53.90;;;;;;5020997;28;20018;-66
2023/09/16 12:26:48;;;;;;;3.00;2.10;;;24.30;53.90;;;;;;5021934;28;19909;-66
2023/09/16 12:29:19;;;;;;;3.25;2.15;;;24.30;53.90;;;;;;5020749;28;20302;-66
2023/09/16 12:31:46;;;;;;;3.08;2.30;;;24.30;53.90;;;;;;5023389;28;20033;-66
2023/09/16 12:34:18;;;;;;;2.50;2.10;;;24.30;53.90;;;;;;5019683;28;20033;-70
2023/09/16 12:36:53;;;;;;;2.70;2.20;;;24.40;54.10;;;;;;5022591;28;20049;-70
2023/09/16 12:39:22;;;;;;;2.80;2.10;;;24.40;54.10;;;;;;5023823;28;20053;-70
2023/09/16 12:41:48;;;;;;;3.15;2.20;;;24.40;54.10;;;;;;5021406;28;20109;-69
2023/09/16 12:44:14;;;;;;;2.35;2.00;;;24.40;54.10;;;;;;5030847;28;20557;-71
2023/09/16 12:46:42;;;;;;;2.50;2.03;;;24.40;54.10;;;;;;5022040;28;20039;-70